Time;durP1;ratioP1;P1;durP2;ratioP2;P2;SDS_P1;SDS_P2;PMS_P1;PMS_P2;Temp;Humidity;BMP_temperature;BMP_pressure;BME280_temperature;BME280_humidity;BME280_pressure;Samples;Min_cycle;Max_cycle;Signal;HPM_P1;HPM_P2
2021/12/27 00:03:04;;;;;;;0.20;0.20;;;;;;;-6.23;78.63;100942.75;10416577;28;20021;-68
2021/12/27 00:08:05;;;;;;;0.13;0.13;;;;;;;-6.16;77.72;100928.72;10409658;28;20032;-68
2021/12/27 00:13:07;;;;;;;0.10;0.10;;;;;;;-6.09;77.89;100931.94;10409826;28;20373;-67
2021/12/27 00:18:07;;;;;;;0.17;0.17;;;;;;;-6.03;78.20;100914.44;10409292;28;20404;-67
2021/12/27 00:23:08;;;;;;;0.10;0.10;;;;;;;-5.96;77.42;100915.94;10434875;28;20025;-67
2021/12/27 00:28:08;;;;;;;0.20;0.20;;;;;;;-5.88;77.21;100912.19;10408723;28;20392;-67
2021/12/27 00:33:11;;;;;;;0.10;0.10;;;;;;;-5.82;76.88;100909.38;10408944;28;20072;-68
2021/12/27 00:38:15;;;;;;;0.22;0.22;;;;;;;-5.75;77.17;100890.97;10408970;28;20295;-65
2021/12/27 00:43:16;;;;;;;0.20;0.20;;;;;;;-5.71;76.12;100887.34;10420316;28;20049;-67
2021/12/27 00:48:17;;;;;;;0.20;0.20;;;;;;;-5.64;76.75;100880.22;10440275;28;20116;-68
2021/12/27 00:53:17;;;;;;;0.15;0.15;;;;;;;-5.61;76.55;100869.72;10447235;28;20436;-67
2021/12/27 00:58:18;;;;;;;0.10;0.10;;;;;;;-5.61;76.52;100869.72;10409301;28;20048;-68
2021/12/27 01:03:20;;;;;;;0.10;0.10;;;;;;;-5.62;77.10;100870.59;10408751;28;20088;-67
2021/12/27 01:08:21;;;;;;;0.20;0.20;;;;;;;-5.61;75.99;100885.28;10416017;28;20032;-68
2021/12/27 01:13:37;;;;;;;0.20;0.20;;;;;;;-5.56;75.46;100883.34;10417441;28;20562;-68
2021/12/27 01:18:44;;;;;;;0.15;0.15;;;;;;;-5.50;75.17;100888.34;10408060;28;20262;-68
2021/12/27 01:23:45;;;;;;;0.20;0.20;;;;;;;-5.46;76.07;100883.88;10408080;28;20108;-67
2021/12/27 01:28:45;;;;;;;0.10;0.10;;;;;;;-5.44;75.66;100882.06;10415634;28;20100;-67
2021/12/27 01:33:46;;;;;;;0.20;0.20;;;;;;;-5.43;75.25;100859.56;10449132;28;20028;-65
2021/12/27 01:38:48;;;;;;;0.20;0.20;;;;;;;-5.43;75.91;100857.81;10448773;28;20239;-65
2021/12/27 01:43:48;;;;;;;0.10;0.10;;;;;;;-5.45;76.04;100854.41;10448375;28;20017;-67
2021/12/27 01:48:55;;;;;;;0.20;0.20;;;;;;;-5.46;75.94;100863.97;10433405;28;20540;-68
2021/12/27 01:53:57;;;;;;;0.10;0.10;;;;;;;-5.44;76.00;100860.44;10405771;28;20136;-67
2021/12/27 01:58:58;;;;;;;0.20;0.20;;;;;;;-5.46;76.16;100863.13;10407095;28;20026;-67
2021/12/27 02:03:58;;;;;;;0.10;0.10;;;;;;;-5.51;75.96;100836.47;10413626;28;20032;-67
2021/12/27 02:08:59;;;;;;;0.20;0.20;;;;;;;-5.56;76.75;100830.59;10414386;28;20030;-68
2021/12/27 02:14:01;;;;;;;0.10;0.10;;;;;;;-5.61;76.90;100850.69;10439476;28;20036;-67
2021/12/27 02:19:03;;;;;;;0.20;0.20;;;;;;;-5.68;77.95;100824.97;10439175;28;20024;-65
2021/12/27 02:24:05;;;;;;;0.20;0.20;;;;;;;-5.70;78.68;100821.59;10447108;28;20471;-65
2021/12/27 02:29:07;;;;;;;0.20;0.20;;;;;;;-5.68;77.94;100821.53;10424666;28;20071;-65
2021/12/27 02:34:10;;;;;;;0.13;0.13;;;;;;;-5.61;78.53;100817.81;10413597;28;20013;-67
2021/12/27 02:39:10;;;;;;;0.10;0.10;;;;;;;-5.57;77.89;100809.00;10412247;28;20021;-66
2021/12/27 02:44:10;;;;;;;0.10;0.10;;;;;;;-5.55;78.62;100789.03;10413542;28;20021;-65
2021/12/27 02:49:11;;;;;;;0.20;0.20;;;;;;;-5.60;78.37;100779.72;10438284;22;20347;-92
2021/12/27 02:54:11;;;;;;;0.10;0.10;;;;;;;-5.55;79.09;100781.25;10420258;28;20025;-92
2021/12/27 02:59:12;;;;;;;0.20;0.20;;;;;;;-5.50;79.81;100763.75;10443782;28;20017;-90
2021/12/27 03:04:15;;;;;;;0.20;0.20;;;;;;;-5.54;80.10;100749.19;10408672;28;20014;-93
2021/12/27 03:09:15;;;;;;;0.15;0.15;;;;;;;-5.41;78.97;100761.69;10412555;28;20025;-92
2021/12/27 03:14:16;;;;;;;0.20;0.20;;;;;;;-5.44;78.84;100746.25;10438676;28;20560;-92
2021/12/27 03:19:16;;;;;;;0.13;0.13;;;;;;;-5.36;79.76;100746.78;10447798;28;20288;-91
2021/12/27 03:24:16;;;;;;;0.10;0.10;;;;;;;-5.42;79.97;100734.91;10448195;28;20017;-92
2021/12/27 03:29:17;;;;;;;0.20;0.20;;;;;;;-5.32;79.55;100754.41;10447830;28;20083;-92
2021/12/27 03:34:17;;;;;;;0.20;0.20;;;;;;;-5.29;79.90;100750.84;10419331;28;20482;-91
2021/12/27 03:39:17;;;;;;;0.17;0.17;;;;;;;-5.28;80.34;100747.34;10435786;28;20279;-92
2021/12/27 03:44:18;;;;;;;0.10;0.10;;;;;;;-5.20;80.08;100757.44;10417663;28;20049;-91
2021/12/27 03:49:18;;;;;;;0.20;0.20;;;;;;;-5.22;81.79;100747.09;10412690;28;20083;-93
2021/12/27 03:54:18;;;;;;;0.20;0.20;;;;;;;-5.14;80.46;100752.84;10433974;28;20028;-93
2021/12/27 03:59:34;;;;;;;0.10;0.10;;;;;;;-5.14;80.59;100745.06;10435113;28;20295;-92
2021/12/27 04:04:35;;;;;;;0.20;0.20;;;;;;;-5.17;81.01;100729.59;10423240;28;20009;-92
2021/12/27 04:09:37;;;;;;;0.10;0.10;;;;;;;-5.11;80.90;100726.75;10424813;28;20037;-91
2021/12/27 04:14:37;;;;;;;0.10;0.10;;;;;;;-5.24;81.48;100710.81;10421042;28;20407;-93
2021/12/27 04:19:37;;;;;;;0.20;0.20;;;;;;;-5.18;81.32;100708.88;10417395;28;20084;-92
2021/12/27 04:24:38;;;;;;;0.10;0.10;;;;;;;-5.23;81.59;100698.69;10420355;28;20048;-93
2021/12/27 04:29:38;;;;;;;0.20;0.20;;;;;;;-5.31;81.37;100700.72;10434975;28;20275;-92
2021/12/27 04:34:39;;;;;;;0.20;0.20;;;;;;;-5.46;82.14;100677.06;10418629;28;20022;-92
2021/12/27 04:39:39;;;;;;;0.20;0.20;;;;;;;-5.39;83.16;100688.03;10450153;28;20036;-92
2021/12/27 04:44:39;;;;;;;0.20;0.20;;;;;;;-5.52;83.41;100666.94;10441415;28;20045;-92
2021/12/27 04:49:40;;;;;;;0.20;0.20;;;;;;;-5.54;83.59;100660.94;10438379;28;20022;-91
2021/12/27 04:54:40;;;;;;;0.20;0.20;;;;;;;-5.49;83.39;100660.78;10414965;28;20300;-92
2021/12/27 04:59:41;;;;;;;0.20;0.20;;;;;;;-5.39;83.79;100669.88;10423558;28;20018;-92
2021/12/27 05:04:41;;;;;;;0.10;0.10;;;;;;;-5.37;83.66;100656.84;10428336;28;20105;-92
2021/12/27 05:09:41;;;;;;;0.13;0.13;;;;;;;-5.28;83.03;100666.84;10422925;28;20049;-92
2021/12/27 05:14:43;;;;;;;0.10;0.10;;;;;;;-5.34;82.83;100654.97;10430494;28;20021;-93
2021/12/27 05:19:44;;;;;;;0.20;0.20;;;;;;;-5.31;84.20;100648.81;10439016;28;20720;-93
2021/12/27 05:24:44;;;;;;;0.20;0.20;;;;;;;-5.13;83.01;100670.56;10423679;28;20021;-92
2021/12/27 05:29:44;;;;;;;0.20;0.20;;;;;;;-5.19;83.96;100652.66;10420885;28;20128;-91
2021/12/27 05:34:45;;;;;;;0.10;0.10;;;;;;;-5.11;83.80;100658.38;10417514;28;20022;-92
2021/12/27 05:39:47;;;;;;;0.10;0.10;;;;;;;-5.09;84.35;100644.44;10444571;28;20264;-91
2021/12/27 05:44:48;;;;;;;0.13;0.13;;;;;;;-4.95;84.61;100651.63;10426415;28;20253;-92
2021/12/27 05:49:48;;;;;;;0.10;0.10;;;;;;;-4.92;85.25;100645.44;10412843;28;20037;-91
2021/12/27 05:54:49;;;;;;;0.20;0.20;;;;;;;-4.97;84.71;100630.06;10448324;28;20037;-93
2021/12/27 05:59:50;;;;;;;0.20;0.20;;;;;;;-4.95;84.72;100620.44;10455849;28;20024;-91
2021/12/27 06:04:50;;;;;;;0.13;0.13;;;;;;;-4.91;85.10;100605.59;10433307;28;20020;-93
2021/12/27 06:09:51;;;;;;;0.20;0.20;;;;;;;-4.90;86.81;100613.31;10456293;28;20037;-93
2021/12/27 06:14:51;;;;;;;0.10;0.10;;;;;;;-4.90;88.14;100608.09;10428464;28;20277;-92
2021/12/27 06:19:52;;;;;;;0.20;0.20;;;;;;;-4.92;88.52;100598.69;10446872;28;20029;-92
2021/12/27 06:24:52;;;;;;;0.13;0.13;;;;;;;-5.04;88.44;100595.69;10445492;28;20021;-92
2021/12/27 06:29:52;;;;;;;0.13;0.13;;;;;;;-5.02;88.48;100601.69;10431804;28;20017;-91
2021/12/27 06:34:53;;;;;;;0.20;0.20;;;;;;;-5.11;89.08;100591.69;10423768;28;20030;-92
2021/12/27 06:39:54;;;;;;;0.20;0.20;;;;;;;-5.11;90.38;100594.28;10448986;28;20044;-93
2021/12/27 06:44:56;;;;;;;0.20;0.20;;;;;;;-5.16;90.36;100585.84;10432588;28;20044;-92
2021/12/27 06:49:56;;;;;;;0.10;0.10;;;;;;;-5.19;91.40;100595.53;10447824;28;20112;-92
2021/12/27 06:54:57;;;;;;;0.10;0.10;;;;;;;-5.14;91.83;100614.34;10431498;28;20017;-92
2021/12/27 06:59:59;;;;;;;0.20;0.20;;;;;;;-5.21;92.50;100586.94;10431191;28;20256;-93
2021/12/27 07:04:59;;;;;;;0.10;0.10;;;;;;;-5.05;93.33;100601.81;10446469;28;20009;-92
2021/12/27 07:10:00;;;;;;;0.20;0.20;;;;;;;-5.16;94.23;100564.22;10443185;28;20057;-92
2021/12/27 07:15:01;;;;;;;0.20;0.20;;;;;;;-5.18;92.86;100559.09;10447870;28;20018;-92
2021/12/27 07:20:01;;;;;;;0.20;0.20;;;;;;;-5.18;92.96;100571.22;10441619;28;20021;-92
2021/12/27 07:25:02;;;;;;;0.10;0.10;;;;;;;-5.15;93.02;100581.50;10432633;28;20023;-91
2021/12/27 07:30:05;;;;;;;0.20;0.20;;;;;;;-5.17;92.61;100585.94;10453688;28;20048;-92
2021/12/27 07:35:06;;;;;;;0.10;0.10;;;;;;;-5.08;93.23;100581.19;10449583;28;20026;-91
2021/12/27 07:40:09;;;;;;;0.10;0.10;;;;;;;-5.10;92.47;100574.34;10428454;28;20021;-92
2021/12/27 07:45:10;;;;;;;0.20;0.20;;;;;;;-4.88;91.79;100589.88;10421912;28;20028;-93
2021/12/27 07:50:11;;;;;;;0.20;0.20;;;;;;;-4.81;92.45;100581.72;10439409;28;20022;-92
2021/12/27 07:55:12;;;;;;;0.10;0.10;;;;;;;-4.75;91.59;100572.81;10429815;28;20017;-92
2021/12/27 08:00:16;;;;;;;0.10;0.10;;;;;;;-4.72;91.32;100566.63;10441344;28;20018;-93
2021/12/27 08:05:18;;;;;;;0.20;0.20;;;;;;;-4.60;91.19;100563.47;10450793;28;20256;-93
2021/12/27 08:10:18;;;;;;;0.20;0.20;;;;;;;-4.64;90.77;100564.53;10440159;28;20021;-94
2021/12/27 08:15:19;;;;;;;0.10;0.10;;;;;;;-4.47;91.11;100580.22;10435997;28;20044;-92
2021/12/27 08:20:19;;;;;;;0.20;0.20;;;;;;;-4.49;90.58;100574.25;10436472;28;20032;-94
2021/12/27 08:25:20;;;;;;;0.20;0.20;;;;;;;-4.48;90.90;100560.34;10422287;28;20032;-92
2021/12/27 08:30:20;;;;;;;0.10;0.10;;;;;;;-4.44;90.63;100564.50;10425203;28;20032;-92
2021/12/27 08:35:21;;;;;;;0.15;0.15;;;;;;;-4.38;90.10;100578.97;10410232;28;20034;-92
2021/12/27 08:40:22;;;;;;;0.17;0.17;;;;;;;-4.38;90.02;100568.56;10417218;28;20034;-93
2021/12/27 08:45:23;;;;;;;0.10;0.10;;;;;;;-4.31;90.38;100585.56;10424187;28;20022;-93
2021/12/27 08:50:23;;;;;;;0.10;0.10;;;;;;;-4.29;89.71;100583.75;10435423;22;20099;-68
2021/12/27 08:55:24;;;;;;;0.10;0.10;;;;;;;-4.25;90.29;100559.25;10410980;28;20036;-68
2021/12/27 09:00:25;;;;;;;0.10;0.10;;;;;;;-4.21;90.40;100563.44;10410457;28;20021;-68
2021/12/27 09:05:25;;;;;;;0.20;0.20;;;;;;;-4.15;90.57;100572.72;10410500;28;20280;-68
2021/12/27 09:10:26;;;;;;;0.10;0.10;;;;;;;-4.09;90.11;100582.81;10411162;28;20268;-67
2021/12/27 09:15:28;;;;;;;0.13;0.13;;;;;;;-4.01;89.89;100570.31;10418873;28;20480;-68
2021/12/27 09:20:29;;;;;;;0.20;0.20;;;;;;;-3.94;91.38;100557.84;10417648;28;20275;-68
2021/12/27 09:25:29;;;;;;;0.10;0.10;;;;;;;-3.88;90.67;100554.94;10418384;28;20446;-66
2021/12/27 09:30:30;;;;;;;0.10;0.10;;;;;;;-3.79;90.51;100562.28;10417977;28;20025;-66
2021/12/27 09:35:31;;;;;;;0.10;0.10;;;;;;;-3.77;90.68;100559.63;10418029;28;20029;-66
2021/12/27 09:40:32;;;;;;;0.10;0.10;;;;;;;-3.71;91.22;100569.75;10417891;28;20029;-68
2021/12/27 09:45:32;;;;;;;0.10;0.10;;;;;;;-3.66;91.90;100560.78;10417538;28;20017;-68
2021/12/27 09:50:40;;;;;;;0.20;0.20;;;;;;;-3.63;91.40;100559.81;10415878;28;20025;-68
2021/12/27 09:55:40;;;;;;;0.10;0.10;;;;;;;-3.59;91.99;100552.69;10417286;28;20033;-67
2021/12/27 10:00:42;;;;;;;0.05;0.05;;;;;;;-3.57;91.59;100554.28;10417001;28;20043;-67
2021/12/27 10:05:42;;;;;;;0.20;0.20;;;;;;;-3.56;91.39;100549.94;10416880;28;20025;-67
2021/12/27 10:10:46;;;;;;;0.10;0.10;;;;;;;-3.63;91.78;100540.75;10414346;28;20480;-67
2021/12/27 10:15:47;;;;;;;0.10;0.10;;;;;;;-3.60;91.85;100541.44;10415782;28;20037;-67
2021/12/27 10:20:47;;;;;;;0.10;0.10;;;;;;;-3.56;91.96;100532.53;10415012;28;20032;-67
2021/12/27 10:25:50;;;;;;;0.10;0.10;;;;;;;-3.52;92.29;100528.00;10415898;28;20033;-67
2021/12/27 10:30:50;;;;;;;0.10;0.10;;;;;;;-3.48;92.23;100519.97;10415935;28;20363;-68
2021/12/27 10:35:55;;;;;;;0.10;0.10;;;;;;;-3.49;91.97;100518.31;10416097;28;20056;-67
2021/12/27 10:41:00;;;;;;;0.10;0.10;;;;;;;-3.47;92.42;100505.19;10415372;28;20030;-68
2021/12/27 10:46:05;;;;;;;0.15;0.15;;;;;;;-3.44;92.43;100490.25;10415481;28;20472;-68
2021/12/27 10:51:06;;;;;;;0.30;0.30;;;;;;;-3.44;92.24;100487.66;10413507;28;20053;-67
2021/12/27 10:56:06;;;;;;;0.10;0.10;;;;;;;-3.43;92.19;100488.50;10414952;28;20088;-68
2021/12/27 11:01:12;;;;;;;0.10;0.10;;;;;;;-3.39;92.97;100484.81;10414791;28;20080;-68
2021/12/27 11:06:18;;;;;;;0.20;0.20;;;;;;;-3.35;93.51;100486.34;10414565;28;20270;-67
2021/12/27 11:11:20;;;;;;;0.10;0.10;;;;;;;-3.28;93.32;100474.69;10414597;28;20025;-67
2021/12/27 11:16:21;;;;;;;0.10;0.10;;;;;;;-3.25;93.39;100474.53;10412784;28;20472;-68
2021/12/27 11:21:24;;;;;;;0.20;0.20;;;;;;;-3.16;93.38;100474.97;10413754;28;20096;-68
2021/12/27 11:26:28;;;;;;;0.15;0.15;;;;;;;-3.16;93.39;100467.16;10412849;28;20036;-68
2021/12/27 11:31:28;;;;;;;0.10;0.10;;;;;;;-3.12;94.12;100447.84;10409923;28;20167;-66
2021/12/27 11:36:36;;;;;;;0.10;0.10;;;;;;;-3.06;93.08;100447.50;10411385;28;20183;-68
2021/12/27 11:41:37;;;;;;;0.03;0.03;;;;;;;-3.05;93.59;100451.81;10411730;28;20080;-68
2021/12/27 11:46:46;;;;;;;0.10;0.10;;;;;;;-2.96;93.58;100462.56;10412976;28;20543;-68
2021/12/27 11:51:48;;;;;;;0.10;0.10;;;;;;;-2.89;93.86;100452.66;10412579;28;20037;-66
2021/12/27 11:56:49;;;;;;;0.10;0.10;;;;;;;-2.91;92.72;100451.88;10411054;28;20079;-66
2021/12/27 12:01:51;;;;;;;0.10;0.10;;;;;;;-2.92;93.28;100447.63;10412029;28;20021;-67
2021/12/27 12:06:52;;;;;;;0.10;0.10;;;;;;;-2.91;93.37;100444.06;10412196;28;20040;-66
2021/12/27 12:12:02;;;;;;;0.10;0.10;;;;;;;-2.89;93.79;100425.75;10411862;28;20392;-67
2021/12/27 12:17:06;;;;;;;0.10;0.10;;;;;;;-2.83;94.48;100426.25;10412352;28;20025;-67
2021/12/27 12:22:08;;;;;;;0.10;0.10;;;;;;;-2.81;94.19;100426.19;10410404;28;20022;-68
2021/12/27 12:27:09;;;;;;;0.10;0.10;;;;;;;-2.78;93.94;100413.00;10411615;28;20033;-66
2021/12/27 12:32:13;;;;;;;0.03;0.03;;;;;;;-2.73;94.45;100418.78;10410018;28;20116;-68
2021/12/27 12:37:15;;;;;;;0.10;0.10;;;;;;;-2.68;94.92;100410.72;10411186;28;20040;-67
2021/12/27 12:42:23;;;;;;;0.28;0.28;;;;;;;-2.67;94.30;100396.75;10411003;28;20025;-67
2021/12/27 12:47:26;;;;;;;0.10;0.10;;;;;;;-2.62;94.14;100405.16;10410294;28;20591;-66
2021/12/27 12:52:26;;;;;;;0.10;0.10;;;;;;;-2.55;93.91;100417.78;10410797;28;20093;-67
2021/12/27 12:57:26;;;;;;;0.10;0.10;;;;;;;-2.53;94.50;100418.53;10411609;28;20125;-66
2021/12/27 13:02:29;;;;;;;0.10;0.10;;;;;;;-2.52;94.24;100403.72;10411546;28;20107;-67
2021/12/27 13:07:49;;;;;;;0.00;0.00;;;;;;;-2.53;95.20;100399.41;10411553;28;20260;-68
2021/12/27 13:12:52;;;;;;;0.10;0.10;;;;;;;-2.52;94.83;100385.47;10411284;28;20233;-66
2021/12/27 13:18:05;;;;;;;0.10;0.10;;;;;;;-2.49;94.85;100389.66;10408970;28;20034;-67
2021/12/27 13:23:08;;;;;;;0.10;0.10;;;;;;;-2.44;95.60;100387.63;10408894;28;20017;-66
2021/12/27 13:28:11;;;;;;;0.08;0.08;;;;;;;-2.38;95.22;100376.88;10410009;28;20029;-67
2021/12/27 13:33:11;;;;;;;0.10;0.10;;;;;;;-2.33;95.59;100360.03;10409934;28;20021;-68
2021/12/27 13:38:19;;;;;;;0.10;0.10;;;;;;;-2.30;95.72;100361.59;10409663;28;20025;-68
2021/12/27 13:43:21;;;;;;;0.10;0.10;;;;;;;-2.28;96.14;100362.34;10409823;28;20028;-67
2021/12/27 13:48:33;;;;;;;0.00;0.00;;;;;;;-2.27;96.52;100369.25;10409666;28;20044;-67
2021/12/27 13:53:34;;;;;;;0.10;0.10;;;;;;;-2.27;95.93;100358.81;10408299;28;20026;-66
2021/12/27 13:58:44;;;;;;;0.13;0.13;;;;;;;-2.24;97.32;100363.88;10412237;28;20029;-67
2021/12/27 14:03:46;;;;;;;0.10;0.10;;;;;;;-2.21;97.38;100368.03;10416997;28;20017;-66
2021/12/27 14:09:00;;;;;;;0.10;0.10;;;;;;;-2.22;97.39;100374.22;10416757;28;20021;-68
2021/12/27 14:14:04;;;;;;;0.10;0.10;;;;;;;-2.22;97.90;100363.78;10416438;28;20087;-68
2021/12/27 14:19:15;;;;;;;0.10;0.10;;;;;;;-2.22;97.71;100361.16;10416478;28;20037;-68
2021/12/27 14:24:15;;;;;;;0.08;0.08;;;;;;;-2.21;97.83;100374.13;10416909;28;20052;-66
2021/12/27 14:29:18;;;;;;;0.10;0.10;;;;;;;-2.17;98.33;100369.56;10416180;28;20040;-66
2021/12/27 14:34:54;;;;;;;0.10;0.10;;;;;;;-2.14;98.81;100364.16;10416035;28;20318;-66
2021/12/27 14:39:54;;;;;;;0.10;0.10;;;;;;;-2.11;99.00;100364.81;10341908;28;20042;-65
2021/12/27 14:44:56;;;;;;;0.10;0.10;;;;;;;-2.09;99.23;100354.31;10415306;28;20036;-65
2021/12/27 14:49:56;;;;;;;0.10;0.10;;;;;;;-2.06;99.99;100354.13;10415741;28;20036;-67
2021/12/27 14:54:57;;;;;;;0.10;0.10;;;;;;;-2.04;99.66;100362.69;10437096;22;20044;-66
2021/12/27 14:59:57;;;;;;;0.00;0.00;;;;;;;-2.02;100.00;100354.78;10414088;28;20273;-66
2021/12/27 15:04:57;;;;;;;0.00;0.00;;;;;;;-2.01;100.00;100362.50;10415661;28;20460;-65
2021/12/27 15:09:58;;;;;;;0.00;0.00;;;;;;;-1.98;100.00;100364.94;10412200;28;20318;-66
2021/12/27 15:14:58;;;;;;;0.10;0.10;;;;;;;-1.96;100.00;100364.84;10419096;28;20778;-66
2021/12/27 15:19:59;;;;;;;0.10;0.10;;;;;;;-1.94;100.00;100350.78;10453599;28;20060;-66
2021/12/27 15:24:59;;;;;;;0.10;0.10;;;;;;;-1.91;100.00;100344.56;10453404;28;20096;-67
2021/12/27 15:30:04;;;;;;;0.10;0.10;;;;;;;-1.92;100.00;100330.66;10452588;28;20025;-66
2021/12/27 15:35:10;;;;;;;0.10;0.10;;;;;;;-1.93;100.00;100315.91;10427803;28;20013;-66
2021/12/27 15:40:13;;;;;;;0.00;0.00;;;;;;;-1.96;100.00;100303.03;10449523;28;20024;-66
2021/12/27 15:45:16;;;;;;;0.10;0.10;;;;;;;-1.97;100.00;100313.59;10452154;28;20023;-66
2021/12/27 15:50:17;;;;;;;0.10;0.10;;;;;;;-2.00;100.00;100325.06;10452041;28;20395;-66
2021/12/27 15:55:17;;;;;;;0.10;0.10;;;;;;;-1.99;100.00;100341.56;10449838;28;20020;-66
2021/12/27 16:00:20;;;;;;;0.10;0.10;;;;;;;-1.96;100.00;100342.19;10451590;28;20083;-66
2021/12/27 16:05:20;;;;;;;0.10;0.10;;;;;;;-1.92;100.00;100342.84;10410548;28;20436;-65
2021/12/27 16:10:23;;;;;;;0.10;0.10;;;;;;;-1.92;100.00;100321.97;10409661;28;20049;-66
2021/12/27 16:15:27;;;;;;;0.10;0.10;;;;;;;-1.91;100.00;100329.72;10409945;28;20302;-66
2021/12/27 16:20:28;;;;;;;0.10;0.10;;;;;;;-1.89;100.00;100314.81;10409540;28;20037;-66
2021/12/27 16:25:28;;;;;;;0.10;0.10;;;;;;;-1.87;100.00;100322.53;10434688;28;20029;-65
2021/12/27 16:30:29;;;;;;;0.03;0.03;;;;;;;-1.86;100.00;100324.25;10448912;28;20025;-66
2021/12/27 16:35:29;;;;;;;0.10;0.10;;;;;;;-1.83;100.00;100322.28;10413139;28;20040;-66
2021/12/27 16:40:30;;;;;;;0.10;0.10;;;;;;;-1.80;100.00;100338.66;10408854;28;20025;-66
2021/12/27 16:45:30;;;;;;;0.00;0.00;;;;;;;-1.75;100.00;100334.00;10436880;28;20016;-66
2021/12/27 16:50:31;;;;;;;0.10;0.10;;;;;;;-1.68;100.00;100325.72;10449735;28;20502;-66
2021/12/27 16:55:32;;;;;;;0.10;0.10;;;;;;;-1.62;100.00;100343.63;10449926;28;20476;-66
2021/12/27 17:00:33;;;;;;;0.10;0.10;;;;;;;-1.55;100.00;100345.88;10447682;28;20579;-66
2021/12/27 17:05:36;;;;;;;0.00;0.00;;;;;;;-1.49;100.00;100340.28;10491131;28;20025;-65
2021/12/27 17:10:37;;;;;;;0.10;0.10;;;;;;;-1.45;100.00;100326.09;10492533;28;20029;-65
2021/12/27 17:15:39;;;;;;;0.10;0.10;;;;;;;-1.42;100.00;100326.75;10493135;28;20551;-65
2021/12/27 17:20:42;;;;;;;0.10;0.10;;;;;;;-1.37;100.00;100324.69;10491059;28;20020;-65
2021/12/27 17:25:43;;;;;;;0.00;0.00;;;;;;;-1.33;100.00;100321.88;10491460;28;20024;-65
2021/12/27 17:30:45;;;;;;;0.00;0.00;;;;;;;-1.30;100.00;100325.16;10487481;28;20032;-65
2021/12/27 17:35:45;;;;;;;0.00;0.00;;;;;;;-1.27;100.00;100314.50;10457760;28;20442;-67
2021/12/27 17:40:46;;;;;;;0.10;0.10;;;;;;;-1.22;100.00;100320.28;10457570;28;20029;-68
2021/12/27 17:45:46;;;;;;;0.10;0.10;;;;;;;-1.19;100.00;100314.88;10459377;28;20021;-69
2021/12/27 17:50:48;;;;;;;0.00;0.00;;;;;;;-1.15;100.00;100321.56;10457253;28;20025;-68
2021/12/27 17:55:49;;;;;;;0.00;0.00;;;;;;;-1.10;100.00;100304.78;10446798;28;20044;-68
2021/12/27 18:00:49;;;;;;;0.10;0.10;;;;;;;-1.05;100.00;100313.13;10438471;28;20021;-68
2021/12/27 18:05:49;;;;;;;0.00;0.00;;;;;;;-1.01;100.00;100294.56;10444862;28;20269;-68
2021/12/27 18:10:50;;;;;;;0.03;0.03;;;;;;;-0.96;100.00;100289.00;10435776;28;20021;-68
2021/12/27 18:15:50;;;;;;;0.10;0.10;;;;;;;-0.92;100.00;100291.34;10427195;28;20297;-69
2021/12/27 18:20:51;;;;;;;0.00;0.00;;;;;;;-0.87;100.00;100287.59;10424678;28;20024;-68
2021/12/27 18:25:52;;;;;;;0.00;0.00;;;;;;;-0.84;100.00;100277.78;10429888;28;20045;-69
2021/12/27 18:30:52;;;;;;;0.03;0.03;;;;;;;-0.82;100.00;100267.22;10432967;28;20034;-68
2021/12/27 18:35:53;;;;;;;0.00;0.00;;;;;;;-0.80;100.00;100265.34;10498413;28;20064;-69
2021/12/27 18:40:54;;;;;;;0.00;0.00;;;;;;;-0.79;100.00;100260.00;10429113;28;20439;-68
2021/12/27 18:45:56;;;;;;;0.00;0.00;;;;;;;-0.79;100.00;100252.16;10448077;28;20108;-69
2021/12/27 18:50:57;;;;;;;0.00;0.00;;;;;;;-0.75;100.00;100263.28;10435105;28;20017;-69
2021/12/27 18:56:00;;;;;;;0.10;0.10;;;;;;;-0.71;100.00;100269.97;10430482;28;20041;-69
2021/12/27 19:01:00;;;;;;;0.10;0.10;;;;;;;-0.68;100.00;100259.31;10427462;28;20025;-68
2021/12/27 19:06:00;;;;;;;0.03;0.03;;;;;;;-0.65;100.00;100255.66;10453256;28;20028;-69
2021/12/27 19:11:03;;;;;;;0.00;0.00;;;;;;;-0.63;100.00;100262.47;10427835;28;20276;-68
2021/12/27 19:16:04;;;;;;;0.00;0.00;;;;;;;-0.60;100.00;100254.41;10430723;28;20072;-69
2021/12/27 19:21:05;;;;;;;0.00;0.00;;;;;;;-0.55;100.00;100248.88;10442927;28;20087;-69
2021/12/27 19:26:06;;;;;;;0.10;0.10;;;;;;;-0.51;100.00;100245.13;10432903;28;20043;-68
2021/12/27 19:31:07;;;;;;;0.00;0.00;;;;;;;-0.50;100.00;100244.16;10426941;28;20021;-69
2021/12/27 19:36:07;;;;;;;0.10;0.10;;;;;;;-0.49;100.00;100243.25;10422074;28;20059;-69
2021/12/27 19:41:08;;;;;;;0.00;0.00;;;;;;;-0.47;100.00;100221.28;10421734;28;20021;-67
2021/12/27 19:46:08;;;;;;;0.03;0.03;;;;;;;-0.45;100.00;100221.16;10411448;28;20056;-67
2021/12/27 19:51:08;;;;;;;0.00;0.00;;;;;;;-0.44;100.00;100214.97;10411321;28;20698;-67
2021/12/27 19:56:13;;;;;;;0.00;0.00;;;;;;;-0.41;100.00;100214.75;10413624;28;20338;-67
2021/12/27 20:01:14;;;;;;;0.10;0.10;;;;;;;-0.38;100.00;100224.19;10410481;28;20021;-67
2021/12/27 20:06:15;;;;;;;0.10;0.10;;;;;;;-0.34;100.00;100217.81;10412650;28;20028;-67
2021/12/27 20:11:15;;;;;;;0.10;0.10;;;;;;;-0.31;100.00;100205.34;10410857;28;20327;-68
2021/12/27 20:16:16;;;;;;;0.00;0.00;;;;;;;-0.28;100.00;100213.00;10418514;28;20355;-67
2021/12/27 20:21:18;;;;;;;0.10;0.10;;;;;;;-0.25;100.00;100183.16;10450227;28;20534;-67
2021/12/27 20:26:19;;;;;;;0.00;0.00;;;;;;;-0.22;100.00;100195.19;10451040;28;20079;-67
2021/12/27 20:31:20;;;;;;;0.10;0.10;;;;;;;-0.19;100.00;100187.97;10450292;28;20360;-68
2021/12/27 20:36:21;;;;;;;0.00;0.00;;;;;;;-0.17;100.00;100177.41;10437541;28;20025;-67
2021/12/27 20:41:23;;;;;;;0.00;0.00;;;;;;;-0.15;100.00;100176.31;10441970;28;20045;-67
2021/12/27 20:46:23;;;;;;;0.00;0.00;;;;;;;-0.11;100.00;100179.59;10447274;28;20021;-67
2021/12/27 20:51:24;;;;;;;0.05;0.05;;;;;;;-0.10;100.00;100173.41;10446735;28;20458;-67
2021/12/27 20:56:24;;;;;;;0.00;0.00;;;;;;;-0.07;100.00;100179.25;10449247;28;20064;-67
2021/12/27 21:01:24;;;;;;;0.00;0.00;;;;;;;-0.03;100.00;100182.50;10447737;22;20050;-67
2021/12/27 21:06:25;;;;;;;0.03;0.03;;;;;;;0.01;100.00;100177.91;10373082;28;20352;-66
2021/12/27 21:11:25;;;;;;;0.00;0.00;;;;;;;0.03;100.00;100179.47;10381635;28;20027;-67
2021/12/27 21:16:27;;;;;;;0.10;0.10;;;;;;;0.07;100.00;100178.31;10407651;28;20693;-66
2021/12/27 21:21:29;;;;;;;0.05;0.05;;;;;;;0.07;100.00;100173.06;10378064;28;20014;-66
2021/12/27 21:26:29;;;;;;;0.00;0.00;;;;;;;0.08;100.00;100166.03;10367300;28;20057;-66
2021/12/27 21:31:29;;;;;;;0.00;0.00;;;;;;;0.07;100.00;100153.91;10386706;28;20488;-67
2021/12/27 21:36:30;;;;;;;0.00;0.00;;;;;;;0.09;100.00;100149.38;10390392;28;20022;-67
2021/12/27 21:41:32;;;;;;;0.00;0.00;;;;;;;0.08;100.00;100151.16;10365326;28;20049;-66
2021/12/27 21:46:37;;;;;;;0.10;0.10;;;;;;;0.09;100.00;100147.63;10366713;28;20424;-67
2021/12/27 21:51:37;;;;;;;0.08;0.08;;;;;;;0.08;100.00;100143.31;10366433;28;20014;-66
2021/12/27 21:56:38;;;;;;;0.00;0.00;;;;;;;0.10;100.00;100146.66;10365415;28;20018;-66
2021/12/27 22:01:38;;;;;;;0.00;0.00;;;;;;;0.11;100.00;100139.63;10366220;28;20272;-67
2021/12/27 22:06:40;;;;;;;0.00;0.00;;;;;;;0.12;100.00;100146.56;10366133;28;20026;-66
2021/12/27 22:11:41;;;;;;;0.00;0.00;;;;;;;0.14;100.00;100145.47;10361580;28;20482;-66
2021/12/27 22:16:41;;;;;;;0.00;0.00;;;;;;;0.16;100.00;100150.63;10407234;28;20075;-67
2021/12/27 22:21:42;;;;;;;0.00;0.00;;;;;;;0.18;100.00;100148.75;10369941;28;20030;-66
2021/12/27 22:26:46;;;;;;;0.10;0.10;;;;;;;0.18;100.00;100148.75;10372741;28;20029;-67
2021/12/27 22:31:46;;;;;;;0.05;0.05;;;;;;;0.19;100.00;100150.41;10372691;28;20633;-66
2021/12/27 22:36:46;;;;;;;0.03;0.03;;;;;;;0.22;100.00;100137.09;10371252;28;20104;-66
2021/12/27 22:41:47;;;;;;;0.00;0.00;;;;;;;0.26;100.00;100135.09;10386225;28;20026;-66
2021/12/27 22:46:47;;;;;;;0.00;0.00;;;;;;;0.26;100.00;100120.19;10381244;28;20100;-66
2021/12/27 22:51:48;;;;;;;0.00;0.00;;;;;;;0.25;100.00;100118.53;10372243;28;20026;-67
2021/12/27 22:56:48;;;;;;;0.00;0.00;;;;;;;0.29;100.00;100113.91;10371892;28;20435;-67
2021/12/27 23:01:48;;;;;;;0.00;0.00;;;;;;;0.28;100.00;100109.63;10384245;28;20025;-66